sensor_id;sensor_type;location;lat;lon;timestamp;pressure;altitude;pressure_sealevel;temperature
18161;BMP280;9205;52.032;4.314;2024-01-15T00:01:17;100385.19;;;5.45
18161;BMP280;9205;52.032;4.314;2024-01-15T00:03:44;100396.16;;;5.40
18161;BMP280;9205;52.032;4.314;2024-01-15T00:06:11;100392.75;;;5.45
18161;BMP280;9205;52.032;4.314;2024-01-15T00:08:38;100382.72;;;5.39
18161;BMP280;9205;52.032;4.314;2024-01-15T00:11:06;100377.66;;;5.43
18161;BMP280;9205;52.032;4.314;2024-01-15T00:13:33;100376.03;;;5.37
18161;BMP280;9205;52.032;4.314;2024-01-15T00:16:00;100389.44;;;5.39
18161;BMP280;9205;52.032;4.314;2024-01-15T00:18:28;100387.78;;;5.38
18161;BMP280;9205;52.032;4.314;2024-01-15T00:20:55;100376.81;;;5.44
18161;BMP280;9205;52.032;4.314;2024-01-15T00:23:23;100382.69;;;5.43
18161;BMP280;9205;52.032;4.314;2024-01-15T00:25:51;100371.75;;;5.44
18161;BMP280;9205;52.032;4.314;2024-01-15T00:28:18;100378.56;;;5.35
18161;BMP280;9205;52.032;4.314;2024-01-15T00:30:45;100366.88;;;5.22
18161;BMP280;9205;52.032;4.314;2024-01-15T00:33:13;100368.50;;;5.29
18161;BMP280;9205;52.032;4.314;2024-01-15T00:35:42;100362.66;;;5.29
18161;BMP280;9205;52.032;4.314;2024-01-15T00:38:09;100367.69;;;5.32
18161;BMP280;9205;52.032;4.314;2024-01-15T00:40:36;100359.28;;;5.30
18161;BMP280;9205;52.032;4.314;2024-01-15T00:43:03;100362.63;;;5.32
18161;BMP280;9205;52.032;4.314;2024-01-15T00:45:33;100355.94;;;5.28
18161;BMP280;9205;52.032;4.314;2024-01-15T00:48:00;100357.50;;;5.43
18161;BMP280;9205;52.032;4.314;2024-01-15T00:50:27;100358.47;;;5.28
18161;BMP280;9205;52.032;4.314;2024-01-15T00:52:56;100351.69;;;5.36
18161;BMP280;9205;52.032;4.314;2024-01-15T00:55:23;100342.44;;;5.38
18161;BMP280;9205;52.032;4.314;2024-01-15T00:57:50;100342.38;;;5.43
18161;BMP280;9205;52.032;4.314;2024-01-15T01:00:18;100334.84;;;5.42
18161;BMP280;9205;52.032;4.314;2024-01-15T01:02:45;100330.63;;;5.45
18161;BMP280;9205;52.032;4.314;2024-01-15T01:05:12;100329.84;;;5.35
18161;BMP280;9205;52.032;4.314;2024-01-15T01:07:39;100329.78;;;5.46
18161;BMP280;9205;52.032;4.314;2024-01-15T01:10:08;100324.78;;;5.39
18161;BMP280;9205;52.032;4.314;2024-01-15T01:12:36;100335.66;;;5.45
18161;BMP280;9205;52.032;4.314;2024-01-15T01:15:05;100329.72;;;5.51
18161;BMP280;9205;52.032;4.314;2024-01-15T01:17:32;100349.09;;;5.41
18161;BMP280;9205;52.032;4.314;2024-01-15T01:20:00;100346.63;;;5.36
18161;BMP280;9205;52.032;4.314;2024-01-15T01:22:30;100345.94;;;5.19
18161;BMP280;9205;52.032;4.314;2024-01-15T01:24:57;100345.03;;;5.26
18161;BMP280;9205;52.032;4.314;2024-01-15T01:27:25;100338.31;;;5.31
18161;BMP280;9205;52.032;4.314;2024-01-15T01:29:52;100332.44;;;5.27
18161;BMP280;9205;52.032;4.314;2024-01-15T01:32:20;100336.66;;;5.25
18161;BMP280;9205;52.032;4.314;2024-01-15T01:34:47;100337.53;;;5.23
18161;BMP280;9205;52.032;4.314;2024-01-15T01:37:14;100324.09;;;5.21
18161;BMP280;9205;52.032;4.314;2024-01-15T01:39:42;100333.38;;;5.16
18161;BMP280;9205;52.032;4.314;2024-01-15T01:42:10;100334.16;;;5.24
18161;BMP280;9205;52.032;4.314;2024-01-15T01:44:39;100337.47;;;5.29
18161;BMP280;9205;52.032;4.314;2024-01-15T01:47:16;100335.78;;;5.31
18161;BMP280;9205;52.032;4.314;2024-01-15T01:49:43;100340.84;;;5.26
18161;BMP280;9205;52.032;4.314;2024-01-15T01:52:11;100325.81;;;5.17
18161;BMP280;9205;52.032;4.314;2024-01-15T01:54:40;100326.59;;;5.24
18161;BMP280;9205;52.032;4.314;2024-01-15T01:57:08;100339.22;;;5.19
18161;BMP280;9205;52.032;4.314;2024-01-15T01:59:36;100344.22;;;5.24
18161;BMP280;9205;52.032;4.314;2024-01-15T02:02:06;100330.81;;;5.22
18161;BMP280;9205;52.032;4.314;2024-01-15T02:04:35;100335.09;;;5.09
18161;BMP280;9205;52.032;4.314;2024-01-15T02:07:03;100321.69;;;5.07
18161;BMP280;9205;52.032;4.314;2024-01-15T02:09:30;100325.13;;;4.91
18161;BMP280;9205;52.032;4.314;2024-01-15T02:11:58;100315.91;;;4.96
18161;BMP280;9205;52.032;4.314;2024-01-15T02:14:25;100314.25;;;4.88
18161;BMP280;9205;52.032;4.314;2024-01-15T02:16:52;100314.31;;;4.79
18161;BMP280;9205;52.032;4.314;2024-01-15T02:19:19;100314.31;;;4.79
18161;BMP280;9205;52.032;4.314;2024-01-15T02:21:48;100310.16;;;4.72
18161;BMP280;9205;52.032;4.314;2024-01-15T02:24:16;100307.69;;;4.66
18161;BMP280;9205;52.032;4.314;2024-01-15T02:26:44;100302.66;;;4.63
18161;BMP280;9205;52.032;4.314;2024-01-15T02:29:12;100311.06;;;4.65
18161;BMP280;9205;52.032;4.314;2024-01-15T02:31:39;100316.16;;;4.53
18161;BMP280;9205;52.032;4.314;2024-01-15T02:34:06;100311.06;;;4.61
18161;BMP280;9205;52.032;4.314;2024-01-15T02:36:34;100312.72;;;4.66
18161;BMP280;9205;52.032;4.314;2024-01-15T02:39:01;100311.00;;;4.71
18161;BMP280;9205;52.032;4.314;2024-01-15T02:41:29;100296.78;;;4.67
18161;BMP280;9205;52.032;4.314;2024-01-15T02:43:56;100302.66;;;4.66
18161;BMP280;9205;52.032;4.314;2024-01-15T02:46:23;100313.47;;;4.83
18161;BMP280;9205;52.032;4.314;2024-01-15T02:48:51;100306.75;;;4.83
18161;BMP280;9205;52.032;4.314;2024-01-15T02:51:18;100311.78;;;4.85
18161;BMP280;9205;52.032;4.314;2024-01-15T02:53:45;100322.66;;;4.90
18161;BMP280;9205;52.032;4.314;2024-01-15T02:56:12;100309.19;;;4.94
18161;BMP280;9205;52.032;4.314;2024-01-15T02:58:40;100331.88;;;4.91
18161;BMP280;9205;52.032;4.314;2024-01-15T03:01:08;100330.25;;;4.78
18161;BMP280;9205;52.032;4.314;2024-01-15T03:03:35;100329.56;;;4.57
18161;BMP280;9205;52.032;4.314;2024-01-15T03:06:02;100312.84;;;4.45
18161;BMP280;9205;52.032;4.314;2024-01-15T03:08:30;100307.88;;;4.36
18161;BMP280;9205;52.032;4.314;2024-01-15T03:10:57;100301.13;;;4.40
18161;BMP280;9205;52.032;4.314;2024-01-15T03:13:24;100302.78;;;4.50
18161;BMP280;9205;52.032;4.314;2024-01-15T03:15:53;100285.94;;;4.56
18161;BMP280;9205;52.032;4.314;2024-01-15T03:18:20;100290.97;;;4.62
18161;BMP280;9205;52.032;4.314;2024-01-15T03:20:47;100290.91;;;4.68
18161;BMP280;9205;52.032;4.314;2024-01-15T03:23:14;100289.19;;;4.73
18161;BMP280;9205;52.032;4.314;2024-01-15T03:25:41;100289.16;;;4.79
18161;BMP280;9205;52.032;4.314;2024-01-15T03:28:09;100294.16;;;4.85
18161;BMP280;9205;52.032;4.314;2024-01-15T03:30:36;100293.28;;;4.86
18161;BMP280;9205;52.032;4.314;2024-01-15T03:33:04;100290.91;;;4.68
18161;BMP280;9205;52.032;4.314;2024-01-15T03:35:31;100282.53;;;4.63
18161;BMP280;9205;52.032;4.314;2024-01-15T03:37:58;100283.44;;;4.58
18161;BMP280;9205;52.032;4.314;2024-01-15T03:40:25;100289.28;;;4.58
18161;BMP280;9205;52.032;4.314;2024-01-15T03:42:53;100282.59;;;4.57
18161;BMP280;9205;52.032;4.314;2024-01-15T03:45:21;100282.59;;;4.57
18161;BMP280;9205;52.032;4.314;2024-01-15T03:47:48;100272.53;;;4.57
18161;BMP280;9205;52.032;4.314;2024-01-15T03:50:16;100278.38;;;4.61
18161;BMP280;9205;52.032;4.314;2024-01-15T03:52:43;100270.81;;;4.65
18161;BMP280;9205;52.032;4.314;2024-01-15T03:55:10;100266.56;;;4.71
18161;BMP280;9205;52.032;4.314;2024-01-15T03:57:38;100263.22;;;4.69
18161;BMP280;9205;52.032;4.314;2024-01-15T04:00:07;100260.69;;;4.74
18161;BMP280;9205;52.032;4.314;2024-01-15T04:02:34;100258.13;;;4.78
18161;BMP280;9205;52.032;4.314;2024-01-15T04:05:02;100274.09;;;4.76
18161;BMP280;9205;52.032;4.314;2024-01-15T04:07:30;100264.91;;;4.69
18161;BMP280;9205;52.032;4.314;2024-01-15T04:09:57;100269.25;;;4.46
18161;BMP280;9205;52.032;4.314;2024-01-15T04:12:25;100265.91;;;4.44
18161;BMP280;9205;52.032;4.314;2024-01-15T04:14:52;100273.50;;;4.38
18161;BMP280;9205;52.032;4.314;2024-01-15T04:17:19;100265.13;;;4.29
18161;BMP280;9205;52.032;4.314;2024-01-15T04:19:47;100260.09;;;4.29
18161;BMP280;9205;52.032;4.314;2024-01-15T04:22:14;100263.44;;;4.34
18161;BMP280;9205;52.032;4.314;2024-01-15T04:24:43;100261.81;;;4.24
18161;BMP280;9205;52.032;4.314;2024-01-15T04:27:10;100276.16;;;4.05
18161;BMP280;9205;52.032;4.314;2024-01-15T04:29:38;100280.41;;;3.88
18161;BMP280;9205;52.032;4.314;2024-01-15T04:32:06;100287.09;;;3.94
18161;BMP280;9205;52.032;4.314;2024-01-15T04:34:33;100292.19;;;3.73
18161;BMP280;9205;52.032;4.314;2024-01-15T04:37:00;100281.38;;;3.41
18161;BMP280;9205;52.032;4.314;2024-01-15T04:39:27;100279.66;;;3.43
18161;BMP280;9205;52.032;4.314;2024-01-15T04:41:55;100276.34;;;3.31
18161;BMP280;9205;52.032;4.314;2024-01-15T04:44:23;100265.44;;;3.36
18161;BMP280;9205;52.032;4.314;2024-01-15T04:46:50;100256.25;;;3.34
18161;BMP280;9205;52.032;4.314;2024-01-15T04:49:17;100240.34;;;3.39
18161;BMP280;9205;52.032;4.314;2024-01-15T04:51:44;100231.97;;;3.45
18161;BMP280;9205;52.032;4.314;2024-01-15T04:54:11;100235.31;;;3.47
18161;BMP280;9205;52.032;4.314;2024-01-15T04:56:38;100238.66;;;3.52
18161;BMP280;9205;52.032;4.314;2024-01-15T04:59:07;100230.28;;;3.53
18161;BMP280;9205;52.032;4.314;2024-01-15T05:01:34;100217.69;;;3.56
18161;BMP280;9205;52.032;4.314;2024-01-15T05:04:01;100231.94;;;3.58
18161;BMP280;9205;52.032;4.314;2024-01-15T05:06:28;100221.03;;;3.61
18161;BMP280;9205;52.032;4.314;2024-01-15T05:08:55;100216.00;;;3.67
18161;BMP280;9205;52.032;4.314;2024-01-15T05:11:22;100215.16;;;3.72
18161;BMP280;9205;52.032;4.314;2024-01-15T05:13:50;100222.66;;;3.77
18161;BMP280;9205;52.032;4.314;2024-01-15T05:16:18;100228.50;;;3.82
18161;BMP280;9205;52.032;4.314;2024-01-15T05:18:45;100232.75;;;3.68
18161;BMP280;9205;52.032;4.314;2024-01-15T05:21:12;100231.06;;;3.67
18161;BMP280;9205;52.032;4.314;2024-01-15T05:23:39;100231.03;;;3.73
18161;BMP280;9205;52.032;4.314;2024-01-15T05:26:06;100219.34;;;3.73
18161;BMP280;9205;52.032;4.314;2024-01-15T05:28:35;100224.31;;;3.81
18161;BMP280;9205;52.032;4.314;2024-01-15T05:31:02;100217.56;;;3.88
18161;BMP280;9205;52.032;4.314;2024-01-15T05:33:31;100215.03;;;3.96
18161;BMP280;9205;52.032;4.314;2024-01-15T05:35:58;100198.31;;;3.86
18161;BMP280;9205;52.032;4.314;2024-01-15T05:38:25;100204.97;;;3.97
18161;BMP280;9205;52.032;4.314;2024-01-15T05:40:52;100206.66;;;3.91
18161;BMP280;9205;52.032;4.314;2024-01-15T05:43:20;100194.09;;;3.98
18161;BMP280;9205;52.032;4.314;2024-01-15T05:45:47;100222.56;;;3.97
18161;BMP280;9205;52.032;4.314;2024-01-15T05:48:14;100215.91;;;3.90
18161;BMP280;9205;52.032;4.314;2024-01-15T05:50:43;100210.84;;;3.95
18161;BMP280;9205;52.032;4.314;2024-01-15T05:53:10;100205.78;;;3.98
18161;BMP280;9205;52.032;4.314;2024-01-15T05:55:37;100214.16;;;4.04
18161;BMP280;9205;52.032;4.314;2024-01-15T05:58:04;100209.13;;;4.07
18161;BMP280;9205;52.032;4.314;2024-01-15T06:00:31;100227.53;;;4.05
18161;BMP280;9205;52.032;4.314;2024-01-15T06:03:01;100246.91;;;3.86
18161;BMP280;9205;52.032;4.314;2024-01-15T06:05:28;100250.31;;;3.74
18161;BMP280;9205;52.032;4.314;2024-01-15T06:07:56;100247.88;;;3.41
18161;BMP280;9205;52.032;4.314;2024-01-15T06:10:24;100244.56;;;3.21
18161;BMP280;9205;52.032;4.314;2024-01-15T06:12:51;100231.19;;;3.17
18161;BMP280;9205;52.032;4.314;2024-01-15T06:15:18;100232.84;;;3.07
18161;BMP280;9205;52.032;4.314;2024-01-15T06:17:45;100231.19;;;3.07
18161;BMP280;9205;52.032;4.314;2024-01-15T06:20:13;100233.69;;;3.13
18161;BMP280;9205;52.032;4.314;2024-01-15T06:22:40;100224.47;;;3.18
18161;BMP280;9205;52.032;4.314;2024-01-15T06:25:09;100215.28;;;3.24
18161;BMP280;9205;52.032;4.314;2024-01-15T06:27:36;100223.63;;;3.28
18161;BMP280;9205;52.032;4.314;2024-01-15T06:30:05;100210.22;;;3.33
18161;BMP280;9205;52.032;4.314;2024-01-15T06:32:32;100206.00;;;3.40
18161;BMP280;9205;52.032;4.314;2024-01-15T06:34:59;100205.22;;;3.38
18161;BMP280;9205;52.032;4.314;2024-01-15T06:37:26;100203.47;;;3.49
18161;BMP280;9205;52.032;4.314;2024-01-15T06:39:53;100203.50;;;3.46
18161;BMP280;9205;52.032;4.314;2024-01-15T06:42:22;100205.97;;;3.55
18161;BMP280;9205;52.032;4.314;2024-01-15T06:44:49;100200.09;;;3.56
18161;BMP280;9205;52.032;4.314;2024-01-15T06:47:16;100190.88;;;3.64
18161;BMP280;9205;52.032;4.314;2024-01-15T06:49:44;100205.91;;;3.76
18161;BMP280;9205;52.032;4.314;2024-01-15T06:52:11;100210.94;;;3.74
18161;BMP280;9205;52.032;4.314;2024-01-15T06:54:38;100210.13;;;3.72
18161;BMP280;9205;52.032;4.314;2024-01-15T06:57:05;100209.25;;;3.75
18161;BMP280;9205;52.032;4.314;2024-01-15T06:59:34;100205.94;;;3.64
18161;BMP280;9205;52.032;4.314;2024-01-15T07:02:02;100195.00;;;3.75
18161;BMP280;9205;52.032;4.314;2024-01-15T07:04:29;100203.38;;;3.74
18161;BMP280;9205;52.032;4.314;2024-01-15T07:06:56;100200.84;;;3.82
18161;BMP280;9205;52.032;4.314;2024-01-15T07:09:24;100183.22;;;3.87
18161;BMP280;9205;52.032;4.314;2024-01-15T07:11:51;100183.22;;;3.95
18161;BMP280;9205;52.032;4.314;2024-01-15T07:14:18;100178.13;;;4.02
18161;BMP280;9205;52.032;4.314;2024-01-15T07:16:46;100172.31;;;4.00
18161;BMP280;9205;52.032;4.314;2024-01-15T07:19:14;100173.94;;;4.04
18161;BMP280;9205;52.032;4.314;2024-01-15T07:21:41;100167.19;;;4.12
18161;BMP280;9205;52.032;4.314;2024-01-15T07:24:08;100170.59;;;4.05
18161;BMP280;9205;52.032;4.314;2024-01-15T07:26:36;100170.53;;;4.14
18161;BMP280;9205;52.032;4.314;2024-01-15T07:29:04;100172.25;;;4.08
18161;BMP280;9205;52.032;4.314;2024-01-15T07:31:31;100175.53;;;4.20
18161;BMP280;9205;52.032;4.314;2024-01-15T07:34:00;100193.13;;;4.20
18161;BMP280;9205;52.032;4.314;2024-01-15T07:36:27;100183.13;;;4.11
18161;BMP280;9205;52.032;4.314;2024-01-15T07:38:54;100180.63;;;4.10
18161;BMP280;9205;52.032;4.314;2024-01-15T07:41:21;100198.22;;;4.07
18161;BMP280;9205;52.032;4.314;2024-01-15T07:43:49;100196.50;;;4.18
18161;BMP280;9205;52.032;4.314;2024-01-15T07:46:16;100193.97;;;4.16
18161;BMP280;9205;52.032;4.314;2024-01-15T07:48:43;100203.19;;;4.17
18161;BMP280;9205;52.032;4.314;2024-01-15T07:51:12;100209.84;;;4.24
18161;BMP280;9205;52.032;4.314;2024-01-15T07:53:39;100208.25;;;4.14
18161;BMP280;9205;52.032;4.314;2024-01-15T07:56:06;100206.56;;;4.15
18161;BMP280;9205;52.032;4.314;2024-01-15T07:58:33;100202.38;;;4.09
18161;BMP280;9205;52.032;4.314;2024-01-15T08:01:00;100194.03;;;4.04
18161;BMP280;9205;52.032;4.314;2024-01-15T08:03:27;100192.44;;;3.93
18161;BMP280;9205;52.032;4.314;2024-01-15T08:05:55;100193.28;;;3.87
18161;BMP280;9205;52.032;4.314;2024-01-15T08:08:24;100204.97;;;3.94
18161;BMP280;9205;52.032;4.314;2024-01-15T08:10:52;100203.28;;;4.01
18161;BMP280;9205;52.032;4.314;2024-01-15T08:13:19;100211.66;;;4.03
18161;BMP280;9205;52.032;4.314;2024-01-15T08:15:47;100214.16;;;4.07
18161;BMP280;9205;52.032;4.314;2024-01-15T08:18:14;100209.94;;;4.12
18161;BMP280;9205;52.032;4.314;2024-01-15T08:20:41;100217.47;;;4.11
18161;BMP280;9205;52.032;4.314;2024-01-15T08:23:08;100218.25;;;4.20
18161;BMP280;9205;52.032;4.314;2024-01-15T08:25:37;100215.72;;;4.22
18161;BMP280;9205;52.032;4.314;2024-01-15T08:28:05;100230.00;;;4.18
18161;BMP280;9205;52.032;4.314;2024-01-15T08:30:32;100214.06;;;4.22
18161;BMP280;9205;52.032;4.314;2024-01-15T08:33:00;100225.81;;;4.17
18161;BMP280;9205;52.032;4.314;2024-01-15T08:35:27;100225.81;;;4.23
18161;BMP280;9205;52.032;4.314;2024-01-15T08:37:55;100219.09;;;4.22
18161;BMP280;9205;52.032;4.314;2024-01-15T08:40:24;100219.09;;;4.22
18161;BMP280;9205;52.032;4.314;2024-01-15T08:42:52;100209.03;;;4.16
18161;BMP280;9205;52.032;4.314;2024-01-15T08:45:19;100219.97;;;4.17
18161;BMP280;9205;52.032;4.314;2024-01-15T08:47:47;100231.66;;;4.19
18161;BMP280;9205;52.032;4.314;2024-01-15T08:50:14;100219.09;;;4.16
18161;BMP280;9205;52.032;4.314;2024-01-15T08:52:42;100223.25;;;4.28
18161;BMP280;9205;52.032;4.314;2024-01-15T08:55:09;100220.69;;;4.38
18161;BMP280;9205;52.032;4.314;2024-01-15T08:57:36;100225.59;;;4.58
18161;BMP280;9205;52.032;4.314;2024-01-15T09:00:06;100242.34;;;4.57
18161;BMP280;9205;52.032;4.314;2024-01-15T09:02:34;100246.53;;;4.58
18161;BMP280;9205;52.032;4.314;2024-01-15T09:05:01;100247.47;;;4.42
18161;BMP280;9205;52.032;4.314;2024-01-15T09:07:30;100246.72;;;4.27
18161;BMP280;9205;52.032;4.314;2024-01-15T09:09:57;100236.66;;;4.31
18161;BMP280;9205;52.032;4.314;2024-01-15T09:12:25;100245.88;;;4.29
18161;BMP280;9205;52.032;4.314;2024-01-15T09:14:52;100247.59;;;4.21
18161;BMP280;9205;52.032;4.314;2024-01-15T09:17:21;100252.59;;;4.27
18161;BMP280;9205;52.032;4.314;2024-01-15T09:19:49;100235.75;;;4.38
18161;BMP280;9205;52.032;4.314;2024-01-15T09:22:16;100239.84;;;4.53
18161;BMP280;9205;52.032;4.314;2024-01-15T09:24:44;100247.41;;;4.48
18161;BMP280;9205;52.032;4.314;2024-01-15T09:27:11;100231.47;;;4.52
18161;BMP280;9205;52.032;4.314;2024-01-15T09:29:39;100234.00;;;4.49
18161;BMP280;9205;52.032;4.314;2024-01-15T09:32:08;100245.69;;;4.56
18161;BMP280;9205;52.032;4.314;2024-01-15T09:34:37;100243.97;;;4.64
18161;BMP280;9205;52.032;4.314;2024-01-15T09:37:04;100245.63;;;4.68
18161;BMP280;9205;52.032;4.314;2024-01-15T09:39:31;100242.28;;;4.69
18161;BMP280;9205;52.032;4.314;2024-01-15T09:41:59;100248.91;;;4.74
18161;BMP280;9205;52.032;4.314;2024-01-15T09:44:27;100256.44;;;4.79
18161;BMP280;9205;52.032;4.314;2024-01-15T09:46:57;100240.66;;;4.56
18161;BMP280;9205;52.032;4.314;2024-01-15T09:49:24;100222.25;;;4.51
18161;BMP280;9205;52.032;4.314;2024-01-15T09:51:54;100249.19;;;4.34
18161;BMP280;9205;52.032;4.314;2024-01-15T09:54:21;100260.09;;;4.36
18161;BMP280;9205;52.032;4.314;2024-01-15T09:56:50;100266.06;;;4.11
18161;BMP280;9205;52.032;4.314;2024-01-15T09:59:19;100265.31;;;3.88
18161;BMP280;9205;52.032;4.314;2024-01-15T10:01:46;100261.13;;;3.95
18161;BMP280;9205;52.032;4.314;2024-01-15T10:04:15;100260.28;;;3.91
18161;BMP280;9205;52.032;4.314;2024-01-15T10:06:45;100256.06;;;3.93
18161;BMP280;9205;52.032;4.314;2024-01-15T10:09:15;100266.97;;;3.98
18161;BMP280;9205;52.032;4.314;2024-01-15T10:11:42;100269.44;;;4.06
18161;BMP280;9205;52.032;4.314;2024-01-15T10:14:10;100282.81;;;4.09
18161;BMP280;9205;52.032;4.314;2024-01-15T10:16:38;100286.22;;;4.05
18161;BMP280;9205;52.032;4.314;2024-01-15T10:19:05;100285.34;;;4.05
18161;BMP280;9205;52.032;4.314;2024-01-15T10:21:33;100271.06;;;4.17
18161;BMP280;9205;52.032;4.314;2024-01-15T10:24:02;100280.28;;;4.21
18161;BMP280;9205;52.032;4.314;2024-01-15T10:26:32;100278.63;;;4.19
18161;BMP280;9205;52.032;4.314;2024-01-15T10:28:59;100260.16;;;4.23
18161;BMP280;9205;52.032;4.314;2024-01-15T10:31:27;100261.81;;;4.25
18161;BMP280;9205;52.032;4.314;2024-01-15T10:33:56;100265.13;;;4.36
18161;BMP280;9205;52.032;4.314;2024-01-15T10:36:39;100271.75;;;4.48
18161;BMP280;9205;52.032;4.314;2024-01-15T10:39:06;100281.72;;;4.63
18161;BMP280;9205;52.032;4.314;2024-01-15T10:41:35;100280.13;;;4.54
18161;BMP280;9205;52.032;4.314;2024-01-15T10:44:03;100289.38;;;4.46
18161;BMP280;9205;52.032;4.314;2024-01-15T10:46:32;100285.19;;;4.45
18161;BMP280;9205;52.032;4.314;2024-01-15T10:49:00;100299.38;;;4.55
18161;BMP280;9205;52.032;4.314;2024-01-15T10:51:29;100293.50;;;4.56
18161;BMP280;9205;52.032;4.314;2024-01-15T10:53:57;100290.16;;;4.59
18161;BMP280;9205;52.032;4.314;2024-01-15T10:56:30;100295.13;;;4.63
18161;BMP280;9205;52.032;4.314;2024-01-15T10:58:59;100291.69;;;4.74
18161;BMP280;9205;52.032;4.314;2024-01-15T11:01:28;100281.66;;;4.71
18161;BMP280;9205;52.032;4.314;2024-01-15T11:03:56;100281.59;;;4.79
18161;BMP280;9205;52.032;4.314;2024-01-15T11:06:24;100275.66;;;4.92
18161;BMP280;9205;52.032;4.314;2024-01-15T11:08:55;100268.84;;;5.03
18161;BMP280;9205;52.032;4.314;2024-01-15T11:11:22;100269.69;;;5.00
18161;BMP280;9205;52.032;4.314;2024-01-15T11:13:50;100272.31;;;4.90
18161;BMP280;9205;52.032;4.314;2024-01-15T11:16:19;100278.97;;;4.94
18161;BMP280;9205;52.032;4.314;2024-01-15T11:19:03;100266.31;;;5.06
18161;BMP280;9205;52.032;4.314;2024-01-15T11:21:42;100269.53;;;5.20
18161;BMP280;9205;52.032;4.314;2024-01-15T11:24:10;100272.00;;;5.26
18161;BMP280;9205;52.032;4.314;2024-01-15T11:26:44;100282.88;;;5.32
18161;BMP280;9205;52.032;4.314;2024-01-15T11:29:30;100311.31;;;5.41
18161;BMP280;9205;52.032;4.314;2024-01-15T11:32:04;100313.34;;;5.01
18161;BMP280;9205;52.032;4.314;2024-01-15T11:34:54;100316.94;;;4.64
18161;BMP280;9205;52.032;4.314;2024-01-15T11:37:25;100329.69;;;4.28
18161;BMP280;9205;52.032;4.314;2024-01-15T11:39:53;100324.75;;;4.07
18161;BMP280;9205;52.032;4.314;2024-01-15T11:42:22;100330.66;;;3.91
18161;BMP280;9205;52.032;4.314;2024-01-15T11:44:50;100316.38;;;4.01
18161;BMP280;9205;52.032;4.314;2024-01-15T11:47:53;100324.75;;;4.12
18161;BMP280;9205;52.032;4.314;2024-01-15T11:50:26;100317.13;;;4.25
18161;BMP280;9205;52.032;4.314;2024-01-15T11:53:00;100316.25;;;4.32
18161;BMP280;9205;52.032;4.314;2024-01-15T11:55:32;100317.13;;;4.31
18161;BMP280;9205;52.032;4.314;2024-01-15T11:58:02;100322.97;;;4.30
18161;BMP280;9205;52.032;4.314;2024-01-15T12:00:31;100321.28;;;4.31
18161;BMP280;9205;52.032;4.314;2024-01-15T12:03:00;100313.78;;;4.17
18161;BMP280;9205;52.032;4.314;2024-01-15T12:05:28;100314.63;;;4.21
18161;BMP280;9205;52.032;4.314;2024-01-15T12:07:56;100329.50;;;4.67
18161;BMP280;9205;52.032;4.314;2024-01-15T12:10:23;100337.78;;;4.84
18161;BMP280;9205;52.032;4.314;2024-01-15T12:12:58;100350.38;;;4.82
18161;BMP280;9205;52.032;4.314;2024-01-15T12:15:27;100353.66;;;4.95
18161;BMP280;9205;52.032;4.314;2024-01-15T12:17:56;100329.25;;;5.03
18161;BMP280;9205;52.032;4.314;2024-01-15T12:20:27;100339.28;;;5.12
18161;BMP280;9205;52.032;4.314;2024-01-15T12:22:54;100350.91;;;5.31
18161;BMP280;9205;52.032;4.314;2024-01-15T12:25:22;100338.97;;;5.47
18161;BMP280;9205;52.032;4.314;2024-01-15T12:27:51;100332.16;;;5.58
18161;BMP280;9205;52.032;4.314;2024-01-15T12:30:18;100333.81;;;5.62
18161;BMP280;9205;52.032;4.314;2024-01-15T12:32:46;100342.13;;;5.72
18161;BMP280;9205;52.032;4.314;2024-01-15T12:35:14;100334.56;;;5.72
18161;BMP280;9205;52.032;4.314;2024-01-15T12:37:43;100327.81;;;5.75
18161;BMP280;9205;52.032;4.314;2024-01-15T12:40:12;100340.44;;;5.72
18161;BMP280;9205;52.032;4.314;2024-01-15T12:42:41;100341.28;;;5.71
18161;BMP280;9205;52.032;4.314;2024-01-15T12:45:10;100343.00;;;5.69
18161;BMP280;9205;52.032;4.314;2024-01-15T12:47:39;100337.97;;;5.66
18161;BMP280;9205;52.032;4.314;2024-01-15T12:50:07;100355.59;;;5.66
18161;BMP280;9205;52.032;4.314;2024-01-15T12:52:34;100354.03;;;5.55
18161;BMP280;9205;52.032;4.314;2024-01-15T12:55:06;100353.31;;;5.41
18161;BMP280;9205;52.032;4.314;2024-01-15T12:57:35;100368.38;;;5.44
18161;BMP280;9205;52.032;4.314;2024-01-15T13:00:03;100367.50;;;5.49
18161;BMP280;9205;52.032;4.314;2024-01-15T13:02:33;100364.06;;;5.62
18161;BMP280;9205;52.032;4.314;2024-01-15T13:05:00;100360.63;;;5.68
18161;BMP280;9205;52.032;4.314;2024-01-15T13:07:30;100412.16;;;5.34
18161;BMP280;9205;52.032;4.314;2024-01-15T13:09:57;100418.25;;;4.97
18161;BMP280;9205;52.032;4.314;2024-01-15T13:12:25;100419.34;;;4.43
18161;BMP280;9205;52.032;4.314;2024-01-15T13:14:52;100415.19;;;4.16
18161;BMP280;9205;52.032;4.314;2024-01-15T13:17:20;100387.59;;;3.98
18161;BMP280;9205;52.032;4.314;2024-01-15T13:19:47;100391.78;;;4.01
18161;BMP280;9205;52.032;4.314;2024-01-15T13:22:15;100390.91;;;4.09
18161;BMP280;9205;52.032;4.314;2024-01-15T13:24:42;100401.00;;;4.02
18161;BMP280;9205;52.032;4.314;2024-01-15T13:27:09;100413.56;;;3.94
18161;BMP280;9205;52.032;4.314;2024-01-15T13:29:39;100395.16;;;3.85
18161;BMP280;9205;52.032;4.314;2024-01-15T13:32:06;100391.81;;;3.82
18161;BMP280;9205;52.032;4.314;2024-01-15T13:34:33;100385.94;;;3.88
18161;BMP280;9205;52.032;4.314;2024-01-15T13:37:01;100382.59;;;3.91
18161;BMP280;9205;52.032;4.314;2024-01-15T13:39:28;100390.13;;;3.95
18161;BMP280;9205;52.032;4.314;2024-01-15T13:41:59;100387.59;;;4.00
18161;BMP280;9205;52.032;4.314;2024-01-15T13:44:27;100390.09;;;4.06
18161;BMP280;9205;52.032;4.314;2024-01-15T13:46:56;100390.88;;;4.24
18161;BMP280;9205;52.032;4.314;2024-01-15T13:49:23;100381.66;;;4.34
18161;BMP280;9205;52.032;4.314;2024-01-15T13:51:50;100395.00;;;4.45
18161;BMP280;9205;52.032;4.314;2024-01-15T13:54:18;100399.16;;;4.52
18161;BMP280;9205;52.032;4.314;2024-01-15T13:56:46;100393.31;;;4.50
18161;BMP280;9205;52.032;4.314;2024-01-15T13:59:14;100393.38;;;4.39
18161;BMP280;9205;52.032;4.314;2024-01-15T14:01:42;100395.00;;;4.46
18161;BMP280;9205;52.032;4.314;2024-01-15T14:04:11;100394.13;;;4.58
18161;BMP280;9205;52.032;4.314;2024-01-15T14:06:38;100408.34;;;4.63
18161;BMP280;9205;52.032;4.314;2024-01-15T14:09:05;100410.00;;;4.67
18161;BMP280;9205;52.032;4.314;2024-01-15T14:11:35;100410.03;;;4.60
18161;BMP280;9205;52.032;4.314;2024-01-15T14:14:03;100417.63;;;4.57
18161;BMP280;9205;52.032;4.314;2024-01-15T14:16:30;100425.19;;;4.52
18161;BMP280;9205;52.032;4.314;2024-01-15T14:18:57;100436.03;;;4.60
18161;BMP280;9205;52.032;4.314;2024-01-15T14:21:26;100433.59;;;4.42
18161;BMP280;9205;52.032;4.314;2024-01-15T14:23:53;100434.47;;;4.26
18161;BMP280;9205;52.032;4.314;2024-01-15T14:26:20;100434.47;;;4.20